Time;durP1;ratioP1;P1;durP2;ratioP2;P2;SDS_P1;SDS_P2;PMS_P1;PMS_P2;Temp;Humidity;BMP_temperature;BMP_pressure;BME280_temperature;BME280_humidity;BME280_pressure;Samples;Min_cycle;Max_cycle;Signal;HPM_P1;HPM_P2
2023/09/07 00:03:56;;;;;;;10.95;7.95;;;;;;;18.23;65.67;101960.16;15674095;28;20404;-48
2023/09/07 00:11:30;;;;;;;;;;;;;;;18.22;66.04;101966.63;15697203;28;20068;-49
2023/09/07 00:19:03;;;;;;;10.25;8.68;;;;;;;18.10;65.92;101973.94;15711198;28;19981;-52
2023/09/07 00:26:38;;;;;;;13.57;8.60;;;;;;;18.15;65.88;101962.38;15694736;28;20103;-48
2023/09/07 00:34:11;;;;;;;12.15;8.98;;;;;;;18.03;65.82;101956.88;15700822;28;20040;-52
2023/09/07 00:41:46;;;;;;;11.00;8.85;;;;;;;17.93;66.73;101962.88;15692014;28;20033;-49
2023/09/07 00:49:19;;;;;;;12.93;9.40;;;;;;;18.05;65.81;101962.94;15700060;28;20049;-46
2023/09/07 00:56:55;;;;;;;11.23;9.25;;;;;;;18.06;66.09;101953.72;15677040;28;20037;-45
2023/09/07 01:04:28;;;;;;;12.88;9.27;;;;;;;18.06;66.15;101957.25;15677484;28;20045;-53
2023/09/07 01:12:03;;;;;;;12.95;9.15;;;;;;;17.95;66.27;101955.34;15694947;28;20040;-50
2023/09/07 01:19:37;;;;;;;13.80;9.35;;;;;;;17.88;66.52;101953.75;15676162;28;20041;-47
2023/09/07 01:27:13;;;;;;;12.90;9.80;;;;;;;17.75;66.71;101955.56;15729339;28;20049;-47
2023/09/07 01:34:46;;;;;;;11.25;9.70;;;;;;;17.60;67.48;101949.69;15689573;28;20114;-46
2023/09/07 01:42:21;;;;;;;12.63;10.02;;;;;;;17.55;67.57;101952.25;15684783;28;20043;-45
2023/09/07 01:49:54;;;;;;;13.02;10.07;;;;;;;17.51;67.15;101953.75;15728765;28;20041;-50
2023/09/07 01:57:29;;;;;;;14.30;10.65;;;;;;;17.39;67.80;101958.25;15696408;28;20037;-49
2023/09/07 02:05:02;;;;;;;13.48;9.82;;;;;;;17.34;67.56;101956.22;15695053;28;20553;-51
2023/09/07 02:12:37;;;;;;;12.55;9.77;;;;;;;17.26;68.10;101954.66;15702452;28;20493;-52
2023/09/07 02:20:11;;;;;;;11.85;10.27;;;;;;;17.09;68.37;101959.81;15692225;28;20090;-52
2023/09/07 02:27:46;;;;;;;13.73;10.40;;;;;;;17.08;68.24;101950.03;15691818;28;20056;-45
2023/09/07 02:35:19;;;;;;;14.00;11.32;;;;;;;16.94;68.63;101955.81;15697735;28;20041;-52
2023/09/07 02:42:53;;;;;;;;;;;;;;;16.82;68.67;101953.81;15726195;28;20051;-45
2023/09/07 02:50:26;;;;;;;14.40;11.00;;;;;;;16.71;68.68;101959.94;15674748;28;19946;-46
2023/09/07 02:58:05;;;;;;;11.80;10.35;;;;;;;16.74;68.54;101951.41;15702095;28;20049;-53
2023/09/07 03:05:40;;;;;;;17.55;10.95;;;;;;;16.69;68.85;101956.59;15665196;28;20045;-52
2023/09/07 03:13:20;;;;;;;15.10;10.63;;;;;;;16.55;68.71;101961.31;15674820;28;20129;-49
2023/09/07 03:20:55;;;;;;;18.75;11.38;;;;;;;16.64;68.39;101961.84;15713754;28;20133;-46
2023/09/07 03:28:31;;;;;;;14.95;11.98;;;;;;;16.66;68.46;101962.47;15692929;28;20136;-44
2023/09/07 03:36:06;;;;;;;15.88;12.02;;;;;;;16.62;69.09;101957.72;15708522;28;20238;-46
2023/09/07 03:43:40;;;;;;;16.15;12.05;;;;;;;16.64;69.07;101961.03;15696323;28;20132;-47
2023/09/07 03:51:15;;;;;;;13.65;12.00;;;;;;;16.58;69.23;101970.88;15692306;22;20056;-51
2023/09/07 03:58:50;;;;;;;16.33;11.95;;;;;;;16.71;69.12;101967.25;15660886;28;20051;-49
2023/09/07 04:06:23;;;;;;;16.02;12.52;;;;;;;16.61;69.54;101959.59;15677703;28;20076;-51
2023/09/07 04:13:58;;;;;;;17.33;12.90;;;;;;;16.76;69.36;101960.13;15678387;28;20090;-51
2023/09/07 04:21:32;;;;;;;16.55;12.35;;;;;;;16.83;69.12;101973.63;15675401;28;20478;-51
2023/09/07 04:29:07;;;;;;;;;;;;;;;16.90;69.04;101970.88;15676345;28;20156;-52
2023/09/07 04:36:40;;;;;;;19.67;13.38;;;;;;;16.37;71.13;101979.34;15676552;28;20303;-54
2023/09/07 04:44:15;;;;;;;18.73;12.80;;;;;;;16.69;70.05;101972.88;15676123;28;20486;-54
2023/09/07 04:51:49;;;;;;;15.68;12.25;;;;;;;16.83;69.37;101979.91;15675672;28;20049;-50
2023/09/07 04:59:23;;;;;;;17.17;12.80;;;;;;;16.97;68.85;101987.91;15623013;28;20141;-50
2023/09/07 05:06:57;;;;;;;14.07;12.43;;;;;;;16.94;69.22;101986.47;15613298;28;20045;-53
2023/09/07 05:14:32;;;;;;;15.00;12.13;;;;;;;17.09;68.93;101986.94;15621678;28;20044;-54
2023/09/07 05:22:05;;;;;;;15.15;11.10;;;;;;;17.32;68.25;101991.75;15617681;28;20565;-52
2023/09/07 05:29:40;;;;;;;15.75;11.57;;;;;;;17.44;68.40;101999.97;15673846;28;20029;-53
2023/09/07 05:37:13;;;;;;;19.50;13.20;;;;;;;17.71;68.13;102002.38;15674919;28;20052;-53
2023/09/07 05:44:48;;;;;;;19.85;12.57;;;;;;;17.82;68.49;102004.38;15656892;28;20091;-51
2023/09/07 05:52:21;;;;;;;16.10;11.32;;;;;;;18.16;68.03;102011.03;15661288;28;20578;-51
2023/09/07 05:59:55;;;;;;;12.02;10.00;;;;;;;18.56;66.38;102007.78;15685748;28;20393;-51
2023/09/07 06:07:30;;;;;;;12.57;9.60;;;;;;;18.54;65.70;102013.44;15685174;28;20041;-55
2023/09/07 06:15:05;;;;;;;14.00;9.25;;;;;;;18.92;65.04;102012.22;15659836;28;20080;-51
2023/09/07 06:22:39;;;;;;;15.90;9.02;;;;;;;19.32;64.16;102020.53;15621936;28;20548;-49
2023/09/07 06:30:14;;;;;;;14.20;8.90;;;;;;;19.46;63.85;102018.41;15621485;28;20033;-51
2023/09/07 06:37:47;;;;;;;12.73;7.90;;;;;;;20.34;62.33;102030.06;15634201;28;20049;-52
2023/09/07 06:45:25;;;;;;;15.40;8.32;;;;;;;20.76;60.24;102029.75;15658770;28;20130;-52
2023/09/07 06:52:58;;;;;;;12.38;8.35;;;;;;;20.82;58.27;102035.03;15681346;28;20460;-53
2023/09/07 07:00:33;;;;;;;12.52;7.78;;;;;;;21.75;56.91;102029.06;15680570;28;20064;-51
2023/09/07 07:08:06;;;;;;;12.63;7.93;;;;;;;22.29;56.05;102027.28;15680803;28;20065;-52
2023/09/07 07:15:41;;;;;;;12.52;7.85;;;;;;;22.51;54.05;102038.16;15651593;28;20029;-53
2023/09/07 07:23:14;;;;;;;12.55;7.43;;;;;;;22.65;52.98;102028.44;15619049;28;20640;-54
2023/09/07 07:30:49;;;;;;;11.55;7.32;;;;;;;23.21;51.39;102038.22;15613234;28;20045;-53
2023/09/07 07:38:22;;;;;;;12.25;7.07;;;;;;;23.40;51.29;102036.72;15650786;28;20060;-55
2023/09/07 07:45:57;;;;;;;10.07;6.25;;;;;;;23.74;50.36;102037.22;15656382;28;20287;-48
2023/09/07 07:53:31;;;;;;;14.95;6.70;;;;;;;24.30;48.71;102037.41;15662559;28;20049;-52
2023/09/07 08:01:14;;;;;;;11.23;6.47;;;;;;;24.79;47.21;102020.47;15615881;28;20067;-50
2023/09/07 08:08:47;;;;;;;9.13;5.38;;;;;;;24.92;46.32;102033.66;15636527;28;20094;-52
2023/09/07 08:16:23;;;;;;;11.32;5.95;;;;;;;25.79;44.44;102030.78;15659132;28;20127;-50
2023/09/07 08:23:57;;;;;;;7.68;5.60;;;;;;;26.21;44.04;102032.22;15628300;28;20445;-53
2023/09/07 08:31:33;;;;;;;12.32;5.68;;;;;;;26.37;42.39;102021.94;15615542;28;20036;-51
2023/09/07 08:39:09;;;;;;;7.03;5.18;;;;;;;26.58;42.18;102026.22;15614789;28;20453;-53
2023/09/07 08:46:44;;;;;;;8.48;4.88;;;;;;;27.81;38.68;102016.75;15616257;28;20041;-52
2023/09/07 08:54:17;;;;;;;6.57;4.32;;;;;;;27.71;37.64;102020.44;15646812;28;20128;-52
2023/09/07 09:01:58;;;;;;;10.68;4.95;;;;;;;28.26;39.50;102020.84;15613099;28;20033;-51
2023/09/07 09:09:32;;;;;;;9.20;5.07;;;;;;;28.43;37.11;102034.13;15615170;28;20148;-50
2023/09/07 09:17:06;;;;;;;6.40;4.28;;;;;;;28.90;35.89;102008.19;15621919;28;20042;-50
2023/09/07 09:24:40;;;;;;;6.63;4.00;;;;;;;27.64;34.47;102014.44;15659437;28;20056;-52
2023/09/07 09:32:16;;;;;;;6.95;4.60;;;;;;;28.40;33.98;102016.22;15686189;28;20041;-51
2023/09/07 09:39:51;;;;;;;9.38;4.78;;;;;;;28.65;33.07;101998.41;15626045;28;20437;-51
2023/09/07 09:47:26;;;;;;;6.93;4.60;;;;;;;29.49;33.10;101994.69;15625784;28;20080;-51
2023/09/07 09:55:00;;;;;;;8.68;4.38;;;;;;;29.67;32.18;101993.78;15632535;22;20065;-53
2023/09/07 10:02:38;;;;;;;8.25;4.45;;;;;;;29.87;31.62;101975.09;15594756;28;20485;-54
2023/09/07 10:10:14;;;;;;;8.68;4.45;;;;;;;28.94;32.25;101980.78;15620116;28;20057;-52
2023/09/07 10:17:50;;;;;;;9.30;4.38;;;;;;;29.48;32.64;101980.03;15608295;28;20061;-52
2023/09/07 10:25:31;;;;;;;5.90;4.32;;;;;;;29.26;31.68;101979.09;15600887;28;20041;-53
2023/09/07 10:33:06;;;;;;;7.50;4.30;;;;;;;30.10;31.31;101973.19;15610912;28;20127;-53
2023/09/07 10:40:40;;;;;;;6.22;4.53;;;;;;;29.93;31.01;101968.28;15613948;28;20053;-51
2023/09/07 10:48:15;;;;;;;7.72;4.10;;;;;;;30.73;29.13;101961.97;15617103;28;20056;-56
2023/09/07 10:55:48;;;;;;;9.13;3.83;;;;;;;30.96;28.84;101961.91;15611130;28;20043;-53
2023/09/07 11:03:22;;;;;;;6.97;4.20;;;;;;;30.97;28.64;101953.28;15614647;28;20048;-51
2023/09/07 11:10:55;;;;;;;5.88;4.50;;;;;;;31.01;27.49;101956.25;15598227;28;20497;-53
2023/09/07 11:18:30;;;;;;;4.95;3.80;;;;;;;31.44;27.05;101944.50;15615048;28;20045;-54
2023/09/07 11:26:05;;;;;;;6.93;4.20;;;;;;;31.84;27.88;101927.75;15614052;28;20103;-52
2023/09/07 11:33:39;;;;;;;8.23;4.07;;;;;;;31.80;27.59;101923.97;15613914;28;20095;-53
2023/09/07 11:41:13;;;;;;;5.22;3.90;;;;;;;32.59;26.20;101925.56;15613655;28;20141;-54
2023/09/07 11:48:47;;;;;;;5.70;3.60;;;;;;;32.47;25.97;101923.50;15594923;28;20041;-53
2023/09/07 11:56:21;;;;;;;8.70;3.45;;;;;;;32.08;26.93;101921.69;15611181;28;20132;-48
2023/09/07 12:03:55;;;;;;;5.32;3.60;;;;;;;32.70;26.73;101924.91;15611123;28;20111;-51
2023/09/07 12:11:34;;;;;;;7.18;3.25;;;;;;;32.19;26.25;101918.28;15606685;28;20059;-49
2023/09/07 12:19:09;;;;;;;5.72;3.30;;;;;;;32.71;24.71;101914.59;15605861;28;20068;-49
2023/09/07 12:26:43;;;;;;;6.63;3.40;;;;;;;33.03;24.55;101913.19;15565514;28;20100;-51
2023/09/07 12:34:17;;;;;;;6.32;3.35;;;;;;;33.57;23.65;101915.31;15604846;28;20658;-50
2023/09/07 12:41:51;;;;;;;4.57;2.70;;;;;;;33.14;23.23;101919.16;15607573;28;20057;-52
2023/09/07 12:49:25;;;;;;;5.82;3.53;;;;;;;33.28;23.61;101913.38;15604963;28;20124;-55
2023/09/07 12:56:58;;;;;;;5.25;3.55;;;;;;;33.12;23.38;101908.38;15603555;28;20583;-54
2023/09/07 13:04:32;;;;;;;9.57;6.97;;;;;;;32.62;23.97;101908.22;15597752;28;20042;-52
2023/09/07 13:12:07;;;;;;;5.95;3.22;;;;;;;33.37;23.27;101898.25;15601778;28;20080;-53
2023/09/07 13:19:41;;;;;;;5.72;3.20;;;;;;;33.11;23.34;101884.50;15601903;28;20050;-54
2023/09/07 13:27:14;;;;;;;5.18;3.20;;;;;;;33.61;23.78;101882.88;15600002;28;20045;-49
2023/09/07 13:34:49;;;;;;;6.30;3.17;;;;;;;33.79;22.25;101873.22;15607648;28;20030;-53
2023/09/07 13:42:22;;;;;;;6.45;3.45;;;;;;;34.20;21.91;101875.16;15593904;28;20044;-52
2023/09/07 13:49:59;;;;;;;7.95;3.70;;;;;;;34.06;22.24;101863.50;15598201;28;20076;-54
2023/09/07 13:57:33;;;;;;;5.05;3.50;;;;;;;31.96;24.70;101853.75;15591521;28;20505;-52
2023/09/07 14:05:09;;;;;;;6.03;3.85;;;;;;;30.82;27.01;101851.09;15600023;28;20072;-52
2023/09/07 14:12:44;;;;;;;5.93;3.88;;;;;;;30.38;27.92;101843.72;15600949;28;20124;-52
2023/09/07 14:20:18;;;;;;;5.15;4.10;;;;;;;29.64;30.00;101857.97;15619240;28;20049;-54
2023/09/07 14:27:51;;;;;;;8.32;4.57;;;;;;;29.84;30.02;101860.25;15618105;28;20128;-54
2023/09/07 14:35:26;;;;;;;6.90;4.38;;;;;;;29.30;30.80;101850.97;15616763;28;20095;-55
2023/09/07 14:43:00;;;;;;;10.27;7.20;;;;;;;29.84;30.15;101851.94;15602863;28;20096;-55
2023/09/07 14:50:34;;;;;;;6.78;4.30;;;;;;;29.59;30.48;101853.38;15615433;28;20046;-54
2023/09/07 14:58:09;;;;;;;5.47;4.00;;;;;;;29.43;30.16;101850.13;15615990;28;20272;-50
2023/09/07 15:05:43;;;;;;;6.88;4.22;;;;;;;30.04;30.22;101841.53;15614998;28;20474;-51
2023/09/07 15:13:17;;;;;;;7.82;4.43;;;;;;;29.22;30.64;101841.44;15596707;28;20052;-53
2023/09/07 15:20:51;;;;;;;6.75;4.03;;;;;;;29.38;30.10;101841.94;15602903;28;20051;-54
2023/09/07 15:28:25;;;;;;;6.60;4.00;;;;;;;28.93;30.52;101836.22;15610267;28;20453;-53
2023/09/07 15:36:00;;;;;;;6.22;3.95;;;;;;;28.87;30.60;101828.34;15605377;28;20414;-53
2023/09/07 15:43:34;;;;;;;7.38;4.18;;;;;;;29.08;30.04;101824.06;15610130;28;20073;-56
2023/09/07 15:51:08;;;;;;;5.95;4.43;;;;;;;29.19;29.50;101814.44;15603795;28;20042;-51
2023/09/07 15:58:42;;;;;;;8.85;4.35;;;;;;;28.97;30.23;101820.69;15604842;28;20053;-46
2023/09/07 16:06:16;;;;;;;6.60;4.40;;;;;;;28.98;29.78;101815.97;15594294;28;20048;-49
2023/09/07 16:13:49;;;;;;;11.55;4.18;;;;;;;28.69;30.93;101803.28;15611812;28;20049;-48
2023/09/07 16:21:26;;;;;;;5.45;3.83;;;;;;;28.56;29.80;101815.13;15611630;28;20111;-49
2023/09/07 16:28:59;;;;;;;7.25;4.28;;;;;;;28.45;31.35;101814.53;15590643;28;20140;-56
2023/09/07 16:36:37;;;;;;;7.50;4.78;;;;;;;28.50;32.42;101812.78;15597462;28;20043;-54
2023/09/07 16:44:10;;;;;;;6.82;4.20;;;;;;;28.36;33.30;101805.31;15598297;28;20037;-48
2023/09/07 16:51:45;;;;;;;6.82;4.20;;;;;;;27.89;33.78;101809.97;15608827;28;20049;-50
2023/09/07 16:59:18;;;;;;;5.82;4.28;;;;;;;27.86;33.57;101801.44;15606434;28;20049;-46
2023/09/07 17:06:53;;;;;;;8.05;4.60;;;;;;;27.71;34.25;101794.22;15608030;28;20045;-49
2023/09/07 17:14:26;;;;;;;6.78;4.55;;;;;;;27.15;34.88;101792.28;15601798;28;20124;-51
2023/09/07 17:22:01;;;;;;;7.25;4.55;;;;;;;26.92;35.69;101797.50;15607406;28;20058;-48
2023/09/07 17:29:35;;;;;;;8.32;5.05;;;;;;;26.90;35.71;101794.22;15608216;28;20498;-49
2023/09/07 17:37:09;;;;;;;7.50;4.40;;;;;;;26.61;36.31;101787.97;15608063;28;20129;-46
2023/09/07 17:44:43;;;;;;;9.43;5.03;;;;;;;26.93;37.82;101796.38;15607571;28;20144;-56
2023/09/07 17:52:18;;;;;;;8.90;5.85;;;;;;;26.21;38.39;101809.28;15625281;28;20044;-47
2023/09/07 17:59:51;;;;;;;8.07;5.20;;;;;;;26.16;39.37;101812.06;15619066;28;20079;-48
2023/09/07 18:07:27;;;;;;;10.23;6.85;;;;;;;25.68;40.37;101817.38;15617328;28;20494;-53
2023/09/07 18:15:00;;;;;;;11.88;6.50;;;;;;;25.79;39.76;101832.75;15613436;28;20115;-52
2023/09/07 18:22:34;;;;;;;7.38;5.47;;;;;;;25.56;40.82;101838.91;15615977;28;20505;-49
2023/09/07 18:30:08;;;;;;;7.90;5.25;;;;;;;25.26;42.96;101854.44;15616933;28;20494;-52
2023/09/07 18:37:45;;;;;;;7.82;4.97;;;;;;;24.68;43.38;101854.09;15610561;28;20038;-45
2023/09/07 18:45:18;;;;;;;12.68;5.40;;;;;;;24.47;43.91;101858.78;15615631;28;20136;-46
2023/09/07 18:52:52;;;;;;;12.07;5.65;;;;;;;24.15;44.69;101850.78;15609388;28;20096;-47
2023/09/07 19:00:25;;;;;;;9.27;5.20;;;;;;;24.19;44.10;101854.63;15614166;28;20050;-49
2023/09/07 19:08:00;;;;;;;8.90;5.43;;;;;;;24.12;44.28;101854.09;15616118;28;20096;-45
2023/09/07 19:15:33;;;;;;;9.10;5.60;;;;;;;24.00;44.07;101861.78;15615587;28;20516;-45
2023/09/07 19:23:07;;;;;;;6.60;5.28;;;;;;;24.10;44.95;101864.50;15612693;28;20124;-51
2023/09/07 19:30:40;;;;;;;10.15;5.72;;;;;;;23.82;45.52;101863.94;15611229;28;20073;-47
2023/09/07 19:38:14;;;;;;;15.00;5.70;;;;;;;23.73;45.23;101862.00;15613888;28;20049;-48
2023/09/07 19:45:49;;;;;;;13.27;5.72;;;;;;;23.30;46.36;101856.66;15608029;28;20042;-47
2023/09/07 19:53:25;;;;;;;9.70;6.10;;;;;;;23.28;47.07;101850.63;15609873;28;20462;-46
2023/09/07 20:00:59;;;;;;;7.72;5.88;;;;;;;22.91;48.12;101851.56;15602043;28;20119;-50
2023/09/07 20:08:33;;;;;;;13.63;9.27;;;;;;;22.63;49.25;101849.16;15603032;28;20362;-47
2023/09/07 20:16:06;;;;;;;12.35;6.55;;;;;;;22.17;50.13;101850.75;15601539;28;20414;-45
2023/09/07 20:23:41;;;;;;;9.30;5.90;;;;;;;22.17;49.82;101839.81;15602873;28;20084;-49
2023/09/07 20:31:15;;;;;;;13.48;6.50;;;;;;;22.03;50.53;101842.13;15602152;28;20064;-51
2023/09/07 20:38:50;;;;;;;8.82;6.53;;;;;;;21.64;51.61;101847.75;15600362;28;20045;-52
2023/09/07 20:46:23;;;;;;;10.48;6.80;;;;;;;21.88;51.35;101840.91;15600767;28;20048;-50
2023/09/07 20:53:57;;;;;;;14.00;6.68;;;;;;;21.67;51.26;101828.09;15601391;28;20041;-46
2023/09/07 21:01:30;;;;;;;12.00;7.00;;;;;;;21.63;51.93;101830.50;15599826;28;20418;-47
2023/09/07 21:09:05;;;;;;;10.70;6.95;;;;;;;21.50;52.52;101835.59;15599816;28;20502;-50
2023/09/07 21:16:39;;;;;;;10.82;7.82;;;;;;;21.43;52.42;101824.84;15598340;28;20061;-54
2023/09/07 21:24:13;;;;;;;10.05;6.97;;;;;;;21.44;52.35;101833.88;15607799;28;20447;-50
2023/09/07 21:31:47;;;;;;;12.38;7.65;;;;;;;21.24;53.33;101827.06;15617146;28;20056;-47
2023/09/07 21:39:22;;;;;;;10.13;7.70;;;;;;;20.93;54.41;101830.47;15620926;28;20045;-51
2023/09/07 21:46:57;;;;;;;12.23;7.47;;;;;;;20.62;55.58;101835.53;15617161;28;20085;-49
2023/09/07 21:54:33;;;;;;;14.20;8.02;;;;;;;20.41;56.33;101836.25;15618644;28;20123;-48
2023/09/07 22:02:06;;;;;;;11.88;8.13;;;;;;;20.24;56.68;101826.19;15609798;28;20053;-52
2023/09/07 22:09:41;;;;;;;12.38;8.40;;;;;;;20.02;57.42;101828.00;15619087;28;20383;-52
2023/09/07 22:17:14;;;;;;;10.80;8.27;;;;;;;19.96;57.49;101818.91;15618797;28;20049;-48
2023/09/07 22:24:48;;;;;;;11.40;8.27;;;;;;;19.87;57.42;101817.69;15618610;28;20046;-52
2023/09/07 22:32:21;;;;;;;11.60;8.23;;;;;;;19.73;58.38;101819.06;15617503;28;20072;-49
2023/09/07 22:39:56;;;;;;;11.02;8.45;;;;;;;19.57;58.56;101824.16;15616596;28;20471;-51
2023/09/07 22:47:29;;;;;;;13.88;9.02;;;;;;;19.42;59.09;101820.34;15617756;28;20053;-45
2023/09/07 22:55:06;;;;;;;15.80;9.18;;;;;;;19.42;58.76;101813.00;15617400;28;20045;-47
2023/09/07 23:02:40;;;;;;;11.18;8.25;;;;;;;19.22;59.14;101818.06;15614962;28;20045;-50
2023/09/07 23:10:15;;;;;;;12.60;9.00;;;;;;;19.22;59.54;101816.16;15614283;28;20064;-47
2023/09/07 23:17:48;;;;;;;13.13;8.98;;;;;;;18.71;61.13;101812.34;15614807;28;20056;-46
2023/09/07 23:25:24;;;;;;;16.45;9.10;;;;;;;18.47;61.64;101818.84;15614796;28;20064;-46
2023/09/07 23:32:59;;;;;;;13.73;9.30;;;;;;;19.11;59.73;101819.72;15614803;28;20057;-47
2023/09/07 23:40:33;;;;;;;16.67;8.95;;;;;;;19.04;59.97;101824.47;15613849;28;20588;-48
2023/09/07 23:48:07;;;;;;;12.30;9.07;;;;;;;19.06;59.88;101823.16;15612798;28;20053;-50
2023/09/07 23:55:41;;;;;;;12.80;9.60;;;;;;;18.81;60.28;101806.31;15613863;28;20132;-47
